Airfield :
LOGIN :

Register | Disclaimer

   EN    FR    IT 

 










Legend :    VFR   Marginal VFR   IFR   Intensive IFR   Very Intensive IFR
Visi :
Ceiling :
>= 8 km
>= 3000ft
5 to 8 km
1000 to 3000 ft
1500m to 5 km
500 to 1000 ft
800 to 1500m
200 to 500 ft
< 800m
< 200 ft
Symbols :   Thunderstorms  Fog  Heavy snow  Heavy precipitations  Wind > 20 kt
SIGMETs :     Misc.  Thunderstorms  Icing  Turbulence  Mountain Waves  Volcanic Ashes







- Airport Elevation : 39 ft
- IATA code : TRS


LIPQ - Friuli Venezia Giulia Apt. Trieste

CURRENT METAR :
  • 231750Z 19003KT CAVOK 14/11 Q1019

EXPIRED METARs :
  • 231720Z 16005KT CAVOK 15/11 Q1018
  • 231650Z 17003KT CAVOK 16/09 Q1018
  • 231620Z 22004KT CAVOK 16/10 Q1018
  • 231550Z 19004KT CAVOK 17/10 Q1018
  • 231520Z 20005KT 170V230 9999 FEW090 16/11 Q1018

TAF TAF LIPQ
Valid from the 23 at 18:00 until the 24 at 18:00 UTC


231700Z 2318/2418 VRB05KT 9999 SCT030
BECMG 2320/2322 3000 BR
TEMPO 2400/2406 0500 FG BKN006
BECMG 2408/2410 8000
No reported NOTAMs for that airfield.
1 SIGMET reported for the Milano FIR (LIMM) :
 
Embedded thunderstorms
LIMM SIGMET 1 VALID 231735/231935 LIMM- LIMM MILANO FIR EMBD TS OBS WI N4555 E00901 - N4457 E01030 - N4518 E01124 - N4558 E01003 - N4555 E00901 TOP FL300 MOV ENE NC=



MET'MAP, your aeronautical weather chart ! - Copyright ORBIFLY December 2007 - Disclaimer

ORBIFLY MET'MAP TEAM :

Programming & Development : Alexandra Zaïnal
Concept & Development : Baudouin d'Aumeries
Co-Development & Prog : Marc-Olivier Méhu
Technical & hardware support : Manuel Goepfert

Contact : metmap@orbifly.com




SOURCES & CREDITS :

   NOAA